createdAt,value
2019-02-14T00:00:03.227Z,-1.8
2019-02-14T00:01:03.676Z,-1.8
2019-02-14T00:02:03.055Z,-1.9
2019-02-14T00:03:03.423Z,-1.8
2019-02-14T00:04:02.756Z,-1.8
2019-02-14T00:05:03.597Z,-1.8
2019-02-14T00:06:03.736Z,-1.7
2019-02-14T00:07:03.556Z,-1.7
2019-02-14T00:08:03.619Z,-1.7
2019-02-14T00:09:02.824Z,-1.7
2019-02-14T00:10:03.632Z,-1.8
2019-02-14T00:11:02.976Z,-1.8
2019-02-14T00:12:02.913Z,-1.8
2019-02-14T00:13:03.291Z,-1.8
2019-02-14T00:14:03.357Z,-1.9
2019-02-14T00:15:02.877Z,-1.9
2019-02-14T00:16:03.724Z,-1.9
2019-02-14T00:17:03.247Z,-1.9
2019-02-14T00:18:03.342Z,-1.9
2019-02-14T00:19:03.642Z,-1.9
2019-02-14T00:20:03.008Z,-1.9
2019-02-14T00:21:03.373Z,-1.8
2019-02-14T00:22:03.013Z,-1.9
2019-02-14T00:23:03.204Z,-1.9
2019-02-14T00:24:02.818Z,-1.9
2019-02-14T00:25:03.322Z,-1.9
2019-02-14T00:26:03.547Z,-1.9
2019-02-14T00:27:03.133Z,-1.9
2019-02-14T00:28:03.306Z,-2
2019-02-14T00:29:02.992Z,-2
2019-02-14T00:30:03.526Z,-2
2019-02-14T00:31:03.339Z,-1.9
2019-02-14T00:32:03.191Z,-1.9
2019-02-14T00:33:03.283Z,-1.9
2019-02-14T00:34:02.622Z,-1.9
2019-02-14T00:35:03.373Z,-1.9
2019-02-14T00:36:03.676Z,-1.9
2019-02-14T00:37:03.217Z,-1.9
2019-02-14T00:38:02.601Z,-1.9
2019-02-14T00:39:03.180Z,-1.9
2019-02-14T00:40:03.533Z,-1.9
2019-02-14T00:41:03.059Z,-1.9
2019-02-14T00:42:03.221Z,-1.9
2019-02-14T00:43:02.591Z,-1.9
2019-02-14T00:44:03.095Z,-1.9
2019-02-14T00:45:03.659Z,-1.9
2019-02-14T00:46:03.272Z,-1.9
2019-02-14T00:47:03.725Z,-1.9
2019-02-14T00:48:03.109Z,-1.9
2019-02-14T00:49:03.745Z,-1.9
2019-02-14T00:50:03.054Z,-1.9
2019-02-14T00:51:03.703Z,-1.9
2019-02-14T00:52:03.032Z,-1.9
2019-02-14T00:53:03.631Z,-1.9
2019-02-14T00:54:02.831Z,-1.9
2019-02-14T00:55:03.768Z,-1.9
2019-02-14T00:56:02.959Z,-2
2019-02-14T00:57:03.634Z,-2
2019-02-14T00:58:03.092Z,-1.9
2019-02-14T00:59:03.478Z,-1.9
2019-02-14T01:00:03.023Z,-2
2019-02-14T01:01:03.278Z,-2
2019-02-14T01:02:03.707Z,-1.9
2019-02-14T01:03:03.326Z,-2
2019-02-14T01:04:03.714Z,-2.1
2019-02-14T01:05:03.099Z,-2.1
2019-02-14T01:06:03.371Z,-2.1
2019-02-14T01:07:03.131Z,-2.1
2019-02-14T01:08:03.618Z,-2.1
2019-02-14T01:09:02.914Z,-2.1
2019-02-14T01:10:03.622Z,-2.1
2019-02-14T01:11:02.713Z,-2.1
2019-02-14T01:12:03.290Z,-2.1
2019-02-14T01:13:02.950Z,-2.3
2019-02-14T01:14:03.288Z,-2.4
2019-02-14T01:15:02.818Z,-2.4
2019-02-14T01:16:03.285Z,-2.4
2019-02-14T01:17:03.025Z,-2.4
2019-02-14T01:18:03.646Z,-2.3
2019-02-14T01:19:02.999Z,-2.3
2019-02-14T01:20:03.476Z,-2.3
2019-02-14T01:21:03.622Z,-2.3
2019-02-14T01:22:03.112Z,-2.3
2019-02-14T01:23:02.930Z,-2.4
2019-02-14T01:24:03.182Z,-2.4
2019-02-14T01:25:03.875Z,-2.4
2019-02-14T01:26:03.106Z,-2.4
2019-02-14T01:27:03.929Z,-2.4
2019-02-14T01:28:03.191Z,-2.4
2019-02-14T01:29:03.697Z,-2.4
2019-02-14T01:30:02.906Z,-2.4
2019-02-14T01:31:03.324Z,-2.4
2019-02-14T01:32:03.537Z,-2.4
2019-02-14T01:33:03.393Z,-2.4
2019-02-14T01:34:02.858Z,-2.4
2019-02-14T01:35:03.309Z,-2.4
2019-02-14T01:36:04.826Z,-2.4
2019-02-14T01:37:02.923Z,-2.4
2019-02-14T01:38:03.154Z,-2.4
2019-02-14T01:39:02.919Z,-2.4
2019-02-14T01:40:03.391Z,-2.4
2019-02-14T01:41:02.952Z,-2.4
2019-02-14T01:42:03.068Z,-2.3
2019-02-14T01:43:03.515Z,-2.3
2019-02-14T01:44:02.789Z,-2.3
2019-02-14T01:45:02.881Z,-2.4
2019-02-14T01:46:03.106Z,-2.4
2019-02-14T01:47:02.942Z,-2.4
2019-02-14T01:48:02.904Z,-2.4
2019-02-14T01:49:03.272Z,-2.4
2019-02-14T01:50:02.801Z,-2.5
2019-02-14T01:51:03.231Z,-2.6
2019-02-14T01:52:02.930Z,-2.6
2019-02-14T01:53:03.810Z,-2.6
2019-02-14T01:54:03.192Z,-2.6
2019-02-14T01:55:03.652Z,-2.7
2019-02-14T01:56:03.770Z,-2.6
2019-02-14T01:57:03.218Z,-2.6
2019-02-14T01:58:03.550Z,-2.6
2019-02-14T01:59:02.876Z,-2.6
2019-02-14T02:00:03.758Z,-2.5
2019-02-14T02:01:02.744Z,-2.6
2019-02-14T02:02:03.248Z,-2.7
2019-02-14T02:03:03.492Z,-2.7
2019-02-14T02:04:02.924Z,-2.7
2019-02-14T02:05:03.583Z,-2.6
2019-02-14T02:06:03.429Z,-2.6
2019-02-14T02:07:03.658Z,-2.6
2019-02-14T02:08:03.079Z,-2.6
2019-02-14T02:09:03.540Z,-2.6
2019-02-14T02:10:03.210Z,-2.6
2019-02-14T02:11:03.444Z,-2.6
2019-02-14T02:12:03.147Z,-2.6
2019-02-14T02:13:03.510Z,-2.6
2019-02-14T02:14:03.004Z,-2.6
2019-02-14T02:15:03.205Z,-2.7
2019-02-14T02:16:03.198Z,-2.6
2019-02-14T02:17:03.182Z,-2.6
2019-02-14T02:18:03.338Z,-2.6
2019-02-14T02:19:03.152Z,-2.6
2019-02-14T02:20:03.776Z,-2.6
2019-02-14T02:21:02.881Z,-2.5
2019-02-14T02:22:03.445Z,-2.6
2019-02-14T02:23:02.973Z,-2.6
2019-02-14T02:24:03.497Z,-2.7
2019-02-14T02:25:03.614Z,-2.8
2019-02-14T02:26:03.223Z,-2.7
2019-02-14T02:27:03.549Z,-2.6
2019-02-14T02:28:03.077Z,-2.6
2019-02-14T02:29:03.660Z,-2.6
2019-02-14T02:30:03.321Z,-2.6
2019-02-14T02:31:03.690Z,-2.6
2019-02-14T02:32:03.326Z,-2.6
2019-02-14T02:33:03.289Z,-2.6
2019-02-14T02:34:02.850Z,-2.6
2019-02-14T02:35:03.544Z,-2.7
2019-02-14T02:36:02.769Z,-2.8
2019-02-14T02:37:03.314Z,-2.8
2019-02-14T02:38:02.728Z,-2.6
2019-02-14T02:39:03.069Z,-2.6
2019-02-14T02:40:04.031Z,-2.6
2019-02-14T02:41:03.028Z,-2.8
2019-02-14T02:42:03.762Z,-2.8
2019-02-14T02:43:03.146Z,-2.8
2019-02-14T02:44:02.771Z,-2.8
2019-02-14T02:45:03.318Z,-2.9
2019-02-14T02:46:03.555Z,-2.9
2019-02-14T02:47:02.801Z,-2.8
2019-02-14T02:48:03.764Z,-2.8
2019-02-14T02:49:03.036Z,-2.8
2019-02-14T02:50:03.520Z,-2.8
2019-02-14T02:51:02.872Z,-2.8
2019-02-14T02:52:03.142Z,-2.8
2019-02-14T02:53:03.563Z,-2.8
2019-02-14T02:54:03.169Z,-2.7
2019-02-14T02:55:04.012Z,-2.8
2019-02-14T02:56:02.883Z,-2.7
2019-02-14T02:57:03.781Z,-2.7
2019-02-14T02:58:02.933Z,-2.8
2019-02-14T02:59:03.673Z,-2.8
2019-02-14T03:00:02.677Z,-2.9
2019-02-14T03:01:03.594Z,-2.8
2019-02-14T03:02:03.309Z,0
2019-02-14T03:03:02.084Z,-2.8
2019-02-14T03:04:03.157Z,-2.8
2019-02-14T03:05:03.650Z,-2.8
2019-02-14T03:06:11.140Z,-2.8
2019-02-14T03:07:03.410Z,-2.8
2019-02-14T03:08:02.736Z,-2.8
2019-02-14T03:09:03.536Z,-2.8
2019-02-14T03:10:03.095Z,-2.8
2019-02-14T03:11:03.505Z,-2.8
2019-02-14T03:12:02.896Z,-2.8
2019-02-14T03:13:03.160Z,-2.9
2019-02-14T03:14:03.700Z,-2.9
2019-02-14T03:15:03.549Z,-2.9
2019-02-14T03:16:02.752Z,-2.8
2019-02-14T03:17:03.178Z,-2.8
2019-02-14T03:18:03.573Z,-2.8
2019-02-14T03:19:03.662Z,-2.9
2019-02-14T03:20:03.133Z,-2.8
2019-02-14T03:21:03.520Z,-2.8
2019-02-14T03:22:03.422Z,-2.8
2019-02-14T03:23:03.760Z,-2.8
2019-02-14T03:24:03.264Z,-2.8
2019-02-14T03:25:03.830Z,-2.7
2019-02-14T03:26:03.264Z,-2.7
2019-02-14T03:27:03.592Z,-2.8
2019-02-14T03:28:03.089Z,-2.8
2019-02-14T03:29:03.359Z,-2.8
2019-02-14T03:30:02.965Z,-2.8
2019-02-14T03:31:03.016Z,-2.8
2019-02-14T03:32:02.955Z,-2.8
2019-02-14T03:33:03.271Z,-2.8
2019-02-14T03:34:03.760Z,-2.8
2019-02-14T03:35:03.304Z,-2.8
2019-02-14T03:36:03.787Z,-2.9
2019-02-14T03:37:03.429Z,-2.8
2019-02-14T03:38:03.093Z,-2.8
2019-02-14T03:39:02.979Z,-2.8
2019-02-14T03:40:03.051Z,-2.6
2019-02-14T03:41:03.519Z,-2.6
2019-02-14T03:42:02.919Z,-2.6
2019-02-14T03:43:03.470Z,-2.6
2019-02-14T03:44:02.955Z,-2.6
2019-02-14T03:45:03.287Z,-2.6
2019-02-14T03:46:03.656Z,-2.6
2019-02-14T03:47:03.220Z,-2.6
2019-02-14T03:48:02.892Z,-2.6
2019-02-14T03:49:03.455Z,-2.6
2019-02-14T03:50:03.641Z,-2.6
2019-02-14T03:51:03.137Z,-2.6
2019-02-14T03:52:03.779Z,-2.6
2019-02-14T03:53:03.084Z,-2.6
2019-02-14T03:54:03.372Z,-2.6
2019-02-14T03:55:03.349Z,-2.6
2019-02-14T03:56:03.260Z,-2.7
2019-02-14T03:57:02.872Z,-2.7
2019-02-14T03:58:03.329Z,-2.8
2019-02-14T03:59:03.042Z,-2.8
2019-02-14T04:00:03.604Z,-2.6
2019-02-14T04:01:02.725Z,-2.6
2019-02-14T04:02:03.503Z,-2.6
2019-02-14T04:03:03.399Z,-2.6
2019-02-14T04:04:02.863Z,-2.6
2019-02-14T04:05:03.480Z,-2.5
2019-02-14T04:06:03.127Z,-2.6
2019-02-14T04:07:02.621Z,-2.6
2019-02-14T04:08:03.077Z,-2.6
2019-02-14T04:09:03.577Z,-2.6
2019-02-14T04:10:03.069Z,-2.6
2019-02-14T04:11:03.594Z,-2.6
2019-02-14T04:12:02.863Z,-2.6
2019-02-14T04:13:02.918Z,-2.6
2019-02-14T04:14:02.779Z,-2.5
2019-02-14T04:15:03.383Z,-2.5
2019-02-14T04:16:04.705Z,-2.5
2019-02-14T04:17:03.176Z,-2.5
2019-02-14T04:18:02.831Z,-2.6
2019-02-14T04:19:03.178Z,-2.6
2019-02-14T04:20:03.865Z,-2.6
2019-02-14T04:21:03.009Z,-2.6
2019-02-14T04:22:03.509Z,-2.6
2019-02-14T04:23:02.864Z,-2.6
2019-02-14T04:24:03.302Z,-2.6
2019-02-14T04:25:03.118Z,-2.6
2019-02-14T04:26:03.012Z,-2.6
2019-02-14T04:27:03.654Z,-2.6
2019-02-14T04:28:02.715Z,-2.6
2019-02-14T04:29:03.386Z,-2.6
2019-02-14T04:30:03.150Z,-2.6
2019-02-14T04:31:03.448Z,-2.6
2019-02-14T04:32:02.961Z,-2.6
2019-02-14T04:33:03.674Z,-2.7
2019-02-14T04:34:02.981Z,-2.7
2019-02-14T04:35:02.862Z,-2.6
2019-02-14T04:36:02.838Z,-2.6
2019-02-14T04:37:03.493Z,-2.6
2019-02-14T04:38:02.929Z,-2.6
2019-02-14T04:39:03.557Z,-2.6
2019-02-14T04:40:03.858Z,-2.6
2019-02-14T04:41:02.845Z,-2.6
2019-02-14T04:42:03.473Z,-2.5
2019-02-14T04:43:03.500Z,-2.5
2019-02-14T04:44:02.807Z,-2.5
2019-02-14T04:45:03.346Z,-2.5
2019-02-14T04:46:03.759Z,-2.5
2019-02-14T04:47:02.848Z,-2.5
2019-02-14T04:48:03.308Z,-2.4
2019-02-14T04:49:03.054Z,-2.4
2019-02-14T04:50:03.509Z,-2.5
2019-02-14T04:51:03.541Z,-2.4
2019-02-14T04:52:03.189Z,-2.5
2019-02-14T04:53:03.832Z,-2.5
2019-02-14T04:54:03.236Z,-2.4
2019-02-14T04:55:03.411Z,-2.4
2019-02-14T04:56:03.192Z,-2.4
2019-02-14T04:57:03.376Z,-2.4
2019-02-14T04:58:02.998Z,-2.4
2019-02-14T04:59:03.064Z,-2.4
2019-02-14T05:00:03.745Z,-2.3
2019-02-14T05:01:03.040Z,-2.3
2019-02-14T05:02:03.737Z,-2.3
2019-02-14T05:03:02.991Z,-2.3
2019-02-14T05:04:03.559Z,-2.3
2019-02-14T05:05:02.898Z,-2.4
2019-02-14T05:06:04.085Z,-2.4
2019-02-14T05:07:02.795Z,-2.4
2019-02-14T05:08:03.549Z,-2.4
2019-02-14T05:09:02.762Z,-2.4
2019-02-14T05:10:03.792Z,-2.4
2019-02-14T05:11:02.768Z,-2.5
2019-02-14T05:12:03.612Z,-2.6
2019-02-14T05:13:02.816Z,-2.4
2019-02-14T05:14:03.327Z,-2.4
2019-02-14T05:15:03.220Z,-2.4
2019-02-14T05:16:03.665Z,-2.4
2019-02-14T05:17:03.229Z,-2.4
2019-02-14T05:18:03.182Z,-2.4
2019-02-14T05:19:02.886Z,-2.4
2019-02-14T05:20:03.762Z,-2.4
2019-02-14T05:21:03.006Z,-2.4
2019-02-14T05:22:02.880Z,-2.4
2019-02-14T05:23:03.450Z,-2.4
2019-02-14T05:24:03.047Z,-2.4
2019-02-14T05:25:03.482Z,-2.4
2019-02-14T05:26:02.606Z,-2.4
2019-02-14T05:27:03.562Z,-2.4
2019-02-14T05:28:02.828Z,-2.4
2019-02-14T05:29:03.570Z,-2.4
2019-02-14T05:30:03.156Z,-2.4
2019-02-14T05:31:03.126Z,-2.4
2019-02-14T05:32:03.583Z,-2.4
2019-02-14T05:33:03.128Z,-2.4
2019-02-14T05:34:03.651Z,-2.4
2019-02-14T05:35:03.111Z,-2.4
2019-02-14T05:36:02.746Z,-2.4
2019-02-14T05:37:03.349Z,-2.4
2019-02-14T05:38:03.098Z,-2.4
2019-02-14T05:39:03.360Z,-2.3
2019-02-14T05:40:02.751Z,-2.3
2019-02-14T05:41:03.447Z,-2.3
2019-02-14T05:42:02.855Z,-2.3
2019-02-14T05:43:03.302Z,-2.3
2019-02-14T05:44:02.822Z,-2.3
2019-02-14T05:45:03.052Z,-2.3
2019-02-14T05:46:02.876Z,-2.3
2019-02-14T05:47:03.056Z,-2.3
2019-02-14T05:48:02.824Z,-2.3
2019-02-14T05:49:03.161Z,-2.3
2019-02-14T05:50:03.638Z,-2.3
2019-02-14T05:51:03.028Z,-2.3
2019-02-14T05:52:03.485Z,-2.3
2019-02-14T05:53:03.694Z,-2.3
2019-02-14T05:54:03.147Z,-2.3
2019-02-14T05:55:03.005Z,-2.3
2019-02-14T05:56:03.536Z,-2.3
2019-02-14T05:57:02.862Z,-2.3
2019-02-14T05:58:03.376Z,-2.3
2019-02-14T05:59:02.871Z,-2.4
2019-02-14T06:00:03.440Z,-2.4
2019-02-14T06:01:02.710Z,-2.3
2019-02-14T06:02:02.768Z,-2.4
2019-02-14T06:03:02.853Z,-2.3
2019-02-14T06:04:03.701Z,-2.3
2019-02-14T06:05:03.325Z,-2.4
2019-02-14T06:06:02.903Z,-2.5
2019-02-14T06:07:03.512Z,-2.4
2019-02-14T06:08:03.692Z,-2.4
2019-02-14T06:09:03.234Z,-2.4
2019-02-14T06:10:03.661Z,-2.4
2019-02-14T06:11:03.355Z,-2.4
2019-02-14T06:12:03.310Z,-2.4
2019-02-14T06:13:03.031Z,-2.4
2019-02-14T06:14:03.635Z,-2.4
2019-02-14T06:15:03.258Z,-2.4
2019-02-14T06:16:03.601Z,-2.6
2019-02-14T06:17:03.395Z,-2.6
2019-02-14T06:18:03.667Z,-2.6
2019-02-14T06:19:02.845Z,-2.6
2019-02-14T06:20:03.443Z,-2.6
2019-02-14T06:21:03.824Z,-2.6
2019-02-14T06:22:03.291Z,-2.6
2019-02-14T06:23:03.226Z,-2.5
2019-02-14T06:24:03.216Z,-2.6
2019-02-14T06:25:03.604Z,-2.7
2019-02-14T06:26:02.923Z,-2.7
2019-02-14T06:27:03.367Z,-2.7
2019-02-14T06:28:03.095Z,-2.7
2019-02-14T06:29:03.457Z,-2.8
2019-02-14T06:30:02.923Z,-2.8
2019-02-14T06:31:03.255Z,-2.8
2019-02-14T06:32:02.870Z,-2.8
2019-02-14T06:33:03.209Z,-2.8
2019-02-14T06:34:02.645Z,-2.8
2019-02-14T06:35:03.226Z,-2.7
2019-02-14T06:36:03.078Z,-2.7
2019-02-14T06:37:10.142Z,-2.7
2019-02-14T06:38:03.247Z,-2.6
2019-02-14T06:39:03.333Z,-2.6
2019-02-14T06:40:03.035Z,-2.6
2019-02-14T06:41:03.860Z,-2.5
2019-02-14T06:42:03.116Z,-2.4
2019-02-14T06:43:03.994Z,-2.4
2019-02-14T06:44:03.084Z,-2.4
2019-02-14T06:45:02.645Z,-2.4
2019-02-14T06:46:03.432Z,-2.4
2019-02-14T06:47:04.354Z,-2.4
2019-02-14T06:48:03.520Z,-2.4
2019-02-14T06:49:03.703Z,-2.5
2019-02-14T06:50:02.773Z,-2.5
2019-02-14T06:51:03.254Z,-2.4
2019-02-14T06:52:03.106Z,-2.4
2019-02-14T06:53:03.232Z,-2.4
2019-02-14T06:54:03.802Z,-2.4
2019-02-14T06:55:03.231Z,-2.4
2019-02-14T06:56:03.837Z,-2.4
2019-02-14T06:57:03.350Z,-2.4
2019-02-14T06:58:03.800Z,-2.4
2019-02-14T06:59:03.254Z,-2.4
2019-02-14T07:00:03.871Z,-2.4
2019-02-14T07:01:03.119Z,-2.4
2019-02-14T07:02:02.971Z,-2.4
2019-02-14T07:03:03.411Z,-2.3
2019-02-14T07:04:03.749Z,-2.3
2019-02-14T07:05:03.047Z,-2.3
2019-02-14T07:06:02.734Z,-2.3
2019-02-14T07:07:03.616Z,-2.3
2019-02-14T07:08:03.699Z,-2.3
2019-02-14T07:09:02.956Z,-2.3
2019-02-14T07:10:03.581Z,-2.3
2019-02-14T07:11:03.537Z,-2.2
2019-02-14T07:12:03.239Z,-2.1
2019-02-14T07:13:03.470Z,-2.1
2019-02-14T07:14:03.631Z,-2.2
2019-02-14T07:15:03.148Z,-2.1
2019-02-14T07:16:03.584Z,-2.1
2019-02-14T07:17:03.159Z,-2.1
2019-02-14T07:18:03.300Z,-2.1
2019-02-14T07:19:02.977Z,-2.1
2019-02-14T07:20:03.791Z,-2.1
2019-02-14T07:21:02.837Z,-2
2019-02-14T07:22:03.624Z,-2
2019-02-14T07:23:02.783Z,-1.9
2019-02-14T07:24:03.633Z,-1.9
2019-02-14T07:25:02.974Z,-1.9
2019-02-14T07:26:03.518Z,-1.9
2019-02-14T07:27:03.122Z,-1.9
2019-02-14T07:28:03.796Z,-1.8
2019-02-14T07:29:03.433Z,-1.8
2019-02-14T07:30:02.945Z,-1.8
2019-02-14T07:31:03.326Z,-1.8
2019-02-14T07:32:03.231Z,-1.8
2019-02-14T07:33:03.457Z,-1.7
2019-02-14T07:34:04.252Z,-1.8
2019-02-14T07:35:03.694Z,-1.8
2019-02-14T07:36:03.061Z,-1.7
2019-02-14T07:37:03.500Z,-1.6
2019-02-14T07:38:02.914Z,-1.6
2019-02-14T07:39:03.641Z,-1.6
2019-02-14T07:40:02.858Z,-1.6
2019-02-14T07:41:03.341Z,-1.4
2019-02-14T07:42:03.577Z,-1.4
2019-02-14T07:43:03.570Z,-1.4
2019-02-14T07:44:03.519Z,-1.4
2019-02-14T07:45:03.171Z,-1.4
2019-02-14T07:46:03.231Z,-1.4
2019-02-14T07:47:02.887Z,-1.4
2019-02-14T07:48:03.180Z,-1.4
2019-02-14T07:49:03.609Z,-1.4
2019-02-14T07:50:03.232Z,-1.4
2019-02-14T07:51:02.737Z,-1.4
2019-02-14T07:52:03.298Z,-1.4
2019-02-14T07:53:02.970Z,-1.3
2019-02-14T07:54:03.027Z,-1.2
2019-02-14T07:55:03.540Z,-1.1
2019-02-14T07:56:03.105Z,-1.1
2019-02-14T07:57:03.607Z,-1.1
2019-02-14T07:58:03.166Z,-1.1
2019-02-14T07:59:03.728Z,-0.9
2019-02-14T08:00:03.371Z,-0.9
2019-02-14T08:01:03.720Z,-0.8
2019-02-14T08:02:03.364Z,-0.8
2019-02-14T08:03:03.752Z,-0.7
2019-02-14T08:04:03.322Z,-0.6
2019-02-14T08:05:02.904Z,-0.5
2019-02-14T08:06:03.186Z,-0.5
2019-02-14T08:07:03.619Z,-0.6
2019-02-14T08:08:02.805Z,-0.6
2019-02-14T08:09:03.043Z,-0.6
2019-02-14T08:10:02.767Z,-0.7
2019-02-14T08:11:03.039Z,-0.7
2019-02-14T08:12:03.772Z,-0.7
2019-02-14T08:13:02.868Z,-0.7
2019-02-14T08:14:03.547Z,-0.6
2019-02-14T08:15:03.154Z,-0.6
2019-02-14T08:16:03.671Z,-0.6
2019-02-14T08:17:03.678Z,-0.5
2019-02-14T08:18:02.995Z,-0.5
2019-02-14T08:19:03.117Z,-0.4
2019-02-14T08:20:03.770Z,-0.4
2019-02-14T08:21:03.188Z,-0.5
2019-02-14T08:22:03.760Z,-0.4
2019-02-14T08:23:03.256Z,-0.4
2019-02-14T08:24:03.668Z,-0.2
2019-02-14T08:25:03.027Z,-0.2
2019-02-14T08:26:11.333Z,-0.3
2019-02-14T08:27:03.873Z,-0.3
2019-02-14T08:28:03.238Z,-0.3
2019-02-14T08:29:02.730Z,-0.2
2019-02-14T08:30:03.364Z,-0.2
2019-02-14T08:31:03.635Z,-0.1
2019-02-14T08:32:03.060Z,-0.1
2019-02-14T08:33:03.523Z,-0.1
2019-02-14T08:34:03.133Z,0
2019-02-14T08:35:03.591Z,0.1
2019-02-14T08:36:03.222Z,0.2
2019-02-14T08:37:03.744Z,0.2
2019-02-14T08:38:03.257Z,0.3
2019-02-14T08:39:02.826Z,0.2
2019-02-14T08:40:03.221Z,0.3
2019-02-14T08:41:03.530Z,0.4
2019-02-14T08:42:03.150Z,0.4
2019-02-14T08:43:03.570Z,0.6
2019-02-14T08:44:03.300Z,0.6
2019-02-14T08:45:03.852Z,0.6
2019-02-14T08:46:03.263Z,0.6
2019-02-14T08:47:03.540Z,0.6
2019-02-14T08:48:03.627Z,0.7
2019-02-14T08:49:02.851Z,0.7
2019-02-14T08:50:03.165Z,0.6
2019-02-14T08:51:03.462Z,0.5
2019-02-14T08:52:03.259Z,0.6
2019-02-14T08:53:03.851Z,0.8
2019-02-14T08:54:03.400Z,1
2019-02-14T08:55:03.880Z,1.1
2019-02-14T08:56:03.215Z,1.1
2019-02-14T08:57:03.650Z,1.1
2019-02-14T08:58:03.127Z,1.1
2019-02-14T08:59:03.665Z,1.2
2019-02-14T09:00:03.085Z,1.2
2019-02-14T09:01:03.457Z,1.3
2019-02-14T09:02:03.173Z,1.3
2019-02-14T09:03:03.334Z,1.3
2019-02-14T09:04:02.939Z,1.4
2019-02-14T09:05:03.404Z,1.3
2019-02-14T09:06:02.793Z,1.4
2019-02-14T09:07:03.578Z,1.4
2019-02-14T09:08:02.778Z,1.4
2019-02-14T09:09:03.452Z,1.6
2019-02-14T09:10:03.669Z,1.8
2019-02-14T09:11:03.308Z,1.9
2019-02-14T09:12:03.098Z,2.1
2019-02-14T09:13:03.617Z,1.8
2019-02-14T09:14:03.084Z,1.7
2019-02-14T09:15:03.728Z,1.6
2019-02-14T09:16:02.987Z,1.4
2019-02-14T09:17:02.862Z,1.4
2019-02-14T09:18:02.945Z,1.3
2019-02-14T09:19:03.238Z,1.3
2019-02-14T09:20:03.021Z,1.3
2019-02-14T09:21:03.346Z,1.5
2019-02-14T09:22:02.951Z,1.7
2019-02-14T09:23:02.958Z,1.9
2019-02-14T09:24:03.504Z,1.9
2019-02-14T09:25:02.844Z,1.8
2019-02-14T09:26:03.883Z,1.7
2019-02-14T09:27:03.174Z,1.8
2019-02-14T09:28:03.379Z,1.9
2019-02-14T09:29:03.259Z,2
2019-02-14T09:30:03.398Z,2.2
2019-02-14T09:31:02.857Z,2.4
2019-02-14T09:32:03.384Z,2.4
2019-02-14T09:33:02.910Z,2.6
2019-02-14T09:34:03.324Z,2.6
2019-02-14T09:35:02.833Z,2.6
2019-02-14T09:36:03.335Z,2.6
2019-02-14T09:37:03.439Z,2.6
2019-02-14T09:38:03.971Z,2.7
2019-02-14T09:39:03.714Z,2.9
2019-02-14T09:40:03.091Z,3.1
2019-02-14T09:41:03.186Z,3.3
2019-02-14T09:42:02.964Z,3.1
2019-02-14T09:43:03.270Z,3.4
2019-02-14T09:44:03.098Z,3.6
2019-02-14T09:45:03.382Z,3.8
2019-02-14T09:46:02.763Z,4
2019-02-14T09:47:03.492Z,4
2019-02-14T09:48:02.890Z,4.2
2019-02-14T09:49:03.654Z,4.2
2019-02-14T09:50:03.036Z,4.5
2019-02-14T09:51:02.752Z,4.5
2019-02-14T09:52:02.963Z,4.9
2019-02-14T09:53:03.583Z,4.9
2019-02-14T09:54:03.319Z,5
2019-02-14T09:55:03.924Z,5
2019-02-14T09:56:03.432Z,4.9
2019-02-14T09:57:03.500Z,4.9
2019-02-14T09:58:03.072Z,4.9
2019-02-14T09:59:03.318Z,4.9
2019-02-14T10:00:03.359Z,4.9
2019-02-14T10:01:03.537Z,4.9
2019-02-14T10:02:03.275Z,4.9
2019-02-14T10:03:02.547Z,4.9
2019-02-14T10:04:03.014Z,4.4
2019-02-14T10:05:03.705Z,4.1
2019-02-14T10:06:02.879Z,3.8
2019-02-14T10:07:03.177Z,3.6
2019-02-14T10:08:13.383Z,3.9
2019-02-14T10:09:03.377Z,3.9
2019-02-14T10:10:03.720Z,3.9
2019-02-14T10:11:03.279Z,3.7
2019-02-14T10:12:03.599Z,3.7
2019-02-14T10:13:03.149Z,3.7
2019-02-14T10:14:03.894Z,3.7
2019-02-14T10:15:02.823Z,3.8
2019-02-14T10:16:03.264Z,3.8
2019-02-14T10:17:03.498Z,3.8
2019-02-14T10:18:03.199Z,4
2019-02-14T10:19:03.437Z,4.1
2019-02-14T10:20:02.827Z,4.1
2019-02-14T10:21:03.212Z,4.3
2019-02-14T10:22:03.164Z,4.4
2019-02-14T10:23:03.273Z,5.1
2019-02-14T10:24:03.179Z,5.4
2019-02-14T10:25:03.615Z,5
2019-02-14T10:26:02.910Z,4.8
2019-02-14T10:27:03.380Z,5.1
2019-02-14T10:28:02.849Z,5.3
2019-02-14T10:29:03.346Z,5.4
2019-02-14T10:30:03.097Z,5.4
2019-02-14T10:31:03.333Z,5.3
2019-02-14T10:32:03.428Z,4.5
2019-02-14T10:33:03.375Z,4.6
2019-02-14T10:34:03.533Z,4.5
2019-02-14T10:35:03.350Z,5
2019-02-14T10:36:04.695Z,5.1
2019-02-14T10:37:03.032Z,5.4
2019-02-14T10:38:02.826Z,5.1
2019-02-14T10:39:03.580Z,4.9
2019-02-14T10:40:03.407Z,5.2
2019-02-14T10:41:03.623Z,5.8
2019-02-14T10:42:03.271Z,5.8
2019-02-14T10:43:02.974Z,5.8
2019-02-14T10:44:03.205Z,5.8
2019-02-14T10:45:02.835Z,6
2019-02-14T10:46:02.979Z,6.3
2019-02-14T10:47:03.574Z,6.8
2019-02-14T10:48:02.755Z,6.9
2019-02-14T10:49:03.618Z,7.2
2019-02-14T10:50:03.203Z,7.7
2019-02-14T10:51:03.514Z,7.6
2019-02-14T10:52:02.959Z,7.4
2019-02-14T10:53:03.570Z,7.8
2019-02-14T10:54:03.074Z,8.1
2019-02-14T10:55:02.891Z,7.9
2019-02-14T10:56:03.340Z,8.3
2019-02-14T10:57:02.660Z,8.4
2019-02-14T10:58:02.928Z,8.6
2019-02-14T10:59:03.492Z,8.6
2019-02-14T11:00:02.985Z,8.8
2019-02-14T11:01:02.640Z,9.1
2019-02-14T11:02:03.000Z,9.4
2019-02-14T11:03:03.154Z,9.6
2019-02-14T11:04:03.239Z,9.5
2019-02-14T11:05:03.657Z,9.6
2019-02-14T11:06:03.110Z,9.9
2019-02-14T11:07:03.355Z,10
2019-02-14T11:08:03.650Z,9.9
2019-02-14T11:09:03.199Z,9.8
2019-02-14T11:10:03.589Z,10.1
2019-02-14T11:11:02.955Z,10
2019-02-14T11:12:03.338Z,9.7
2019-02-14T11:13:03.625Z,10.1
2019-02-14T11:14:03.670Z,9.9
2019-02-14T11:15:02.862Z,9.9
2019-02-14T11:16:03.615Z,9.9
2019-02-14T11:17:03.037Z,9.8
2019-02-14T11:18:02.870Z,9.9
2019-02-14T11:19:03.393Z,9.7
2019-02-14T11:20:03.537Z,9.7
2019-02-14T11:21:03.404Z,9.4
2019-02-14T11:22:02.963Z,9.6
2019-02-14T11:23:03.209Z,9.6
2019-02-14T11:24:02.858Z,9.4
2019-02-14T11:25:03.445Z,9.6
2019-02-14T11:26:03.568Z,9.4
2019-02-14T11:27:03.486Z,8.8
2019-02-14T11:28:03.708Z,9.4
2019-02-14T11:29:03.031Z,9.3
2019-02-14T11:30:03.370Z,8.9
2019-02-14T11:31:02.692Z,8.8
2019-02-14T11:32:03.369Z,8.6
2019-02-14T11:33:02.878Z,8.4
2019-02-14T11:34:04.081Z,8.1
2019-02-14T11:35:02.877Z,8.1
2019-02-14T11:36:03.080Z,8.1
2019-02-14T11:37:03.599Z,7.9
2019-02-14T11:38:02.901Z,8.2
2019-02-14T11:39:03.601Z,8.1
2019-02-14T11:40:03.102Z,8.2
2019-02-14T11:41:03.330Z,8.1
2019-02-14T11:42:03.725Z,7.9
2019-02-14T11:43:03.553Z,7.9
2019-02-14T11:44:03.739Z,7.7
2019-02-14T11:45:03.792Z,7.9
2019-02-14T11:46:03.208Z,8
2019-02-14T11:47:02.986Z,7.9
2019-02-14T11:48:03.074Z,8.3
2019-02-14T11:49:02.819Z,8.4
2019-02-14T11:50:03.416Z,8.4
2019-02-14T11:51:03.721Z,8.1
2019-02-14T11:52:03.057Z,8
2019-02-14T11:53:02.993Z,8.2
2019-02-14T11:54:03.383Z,8.5
2019-02-14T11:55:03.945Z,8.9
2019-02-14T11:56:03.059Z,8.4
2019-02-14T11:57:03.079Z,8.1
2019-02-14T11:58:03.529Z,8.3
2019-02-14T11:59:03.309Z,8.1
2019-02-14T12:00:02.863Z,8.1
2019-02-14T12:01:03.560Z,7.9
2019-02-14T12:02:02.666Z,8.1
2019-02-14T12:03:03.046Z,8.1
2019-02-14T12:04:03.573Z,8
2019-02-14T12:05:02.912Z,7.9
2019-02-14T12:06:03.801Z,8
2019-02-14T12:07:03.024Z,8.1
2019-02-14T12:08:03.692Z,8.3
2019-02-14T12:09:03.173Z,8.3
2019-02-14T12:10:14.049Z,8.4
2019-02-14T12:11:02.974Z,8.3
2019-02-14T12:12:03.403Z,8.4
2019-02-14T12:13:02.922Z,8.5
2019-02-14T12:14:03.368Z,8.4
2019-02-14T12:15:03.170Z,8.6
2019-02-14T12:16:03.267Z,8.6
2019-02-14T12:17:03.623Z,8.7
2019-02-14T12:18:03.257Z,8.9
2019-02-14T12:19:03.675Z,9.4
2019-02-14T12:20:03.525Z,9.3
2019-02-14T12:21:03.669Z,9.6
2019-02-14T12:22:03.875Z,9.3
2019-02-14T12:23:03.297Z,8.9
2019-02-14T12:24:03.651Z,8.8
2019-02-14T12:25:03.366Z,8.9
2019-02-14T12:26:03.083Z,9.4
2019-02-14T12:27:03.340Z,9.5
2019-02-14T12:28:02.821Z,9.9
2019-02-14T12:29:03.803Z,9.7
2019-02-14T12:30:03.127Z,9.4
2019-02-14T12:31:03.998Z,9.3
2019-02-14T12:32:02.867Z,9.5
2019-02-14T12:33:03.048Z,9.9
2019-02-14T12:34:03.089Z,9.8
2019-02-14T12:35:03.698Z,9.8
2019-02-14T12:36:02.980Z,9.9
2019-02-14T12:37:03.393Z,9.9
2019-02-14T12:38:02.810Z,9.8
2019-02-14T12:39:11.785Z,9.9
2019-02-14T12:40:02.859Z,9.9
2019-02-14T12:41:03.240Z,9.6
2019-02-14T12:42:03.545Z,9.8
2019-02-14T12:43:02.949Z,10.1
2019-02-14T12:44:02.543Z,10.3
2019-02-14T12:45:03.469Z,10.3
2019-02-14T12:46:02.724Z,9.7
2019-02-14T12:47:03.031Z,9.4
2019-02-14T12:48:03.628Z,9.3
2019-02-14T12:49:02.702Z,9.3
2019-02-14T12:50:03.459Z,9.1
2019-02-14T12:51:02.916Z,9.2
2019-02-14T12:52:03.455Z,9
2019-02-14T12:53:02.999Z,9
2019-02-14T12:54:03.379Z,9
2019-02-14T12:55:03.701Z,9.1
2019-02-14T12:56:02.884Z,9.3
2019-02-14T12:57:03.168Z,9.3
2019-02-14T12:58:02.768Z,8.9
2019-02-14T12:59:03.449Z,8.7
2019-02-14T13:00:03.545Z,8.6
2019-02-14T13:01:03.255Z,8.6
2019-02-14T13:02:03.541Z,8.7
2019-02-14T13:03:02.824Z,8.8
2019-02-14T13:04:03.541Z,8.7
2019-02-14T13:05:03.084Z,8.6
2019-02-14T13:06:03.268Z,8.6
2019-02-14T13:07:03.733Z,8.7
2019-02-14T13:08:02.917Z,8.8
2019-02-14T13:09:03.248Z,8.6
2019-02-14T13:10:03.375Z,8.6
2019-02-14T13:11:03.369Z,8.4
2019-02-14T13:12:03.429Z,8.4
2019-02-14T13:13:02.955Z,8.5
2019-02-14T13:14:03.406Z,8.3
2019-02-14T13:15:02.881Z,8.3
2019-02-14T13:16:03.156Z,8.4
2019-02-14T13:17:03.042Z,8.5
2019-02-14T13:18:03.388Z,8.6
2019-02-14T13:19:03.576Z,8.7
2019-02-14T13:20:03.057Z,8.7
2019-02-14T13:21:03.796Z,8.4
2019-02-14T13:22:03.026Z,8.5
2019-02-14T13:23:03.688Z,8.5
2019-02-14T13:24:03.329Z,8.4
2019-02-14T13:25:03.289Z,8.3
2019-02-14T13:26:03.265Z,8.3
2019-02-14T13:27:02.761Z,8.2
2019-02-14T13:28:02.977Z,8.4
2019-02-14T13:29:03.532Z,8.4
2019-02-14T13:30:03.040Z,8.5